• Join FlightAware (Why Join?)
  • Login
  • US Flag 
09:10AM EST


 

Airport Tracker/Info


-or-


 

Live Flight TrackerFlight Track Log ✈ N960DL ✈ 03-May-2013 ✈ KORF - KATL

Flight Track Log - Related Links

Times and Time Zones

All times are in EDT time to prevent confusion due to time zone crossing. See the N960DL flight status page for this flight to view local times or setup timezone preferences in your user account.

Time Position Orientation Groundspeed Altitude Reporting Facility
EDT Latitude Longitude Course Direction KTS MPH feet Rate Location/Type
05:57PM 36.9014 -76.1944 244° Southwest 147 169 600  Level Washington Center
05:58PM 36.9369 -76.1611 37° Northeast 209 241 2,500 2,460 Climbing Washington Center
05:59PM 36.9975 -76.1667 356° North 280 322 5,400 2,460 Climbing Washington Center
06:00PM 36.7940 -76.6147 261° West  Level FlightAware Approximate
06:00PM 37.0056 -76.2214 280° West 295 339 6,600  Level Washington Center
06:00PM 37.0094 -76.2708 276° West 313 360 8,100 2,760 Climbing Washington Center
06:01PM 36.7695 -76.7554 253° West  Level FlightAware Approximate
06:01PM 37.0114 -76.3253 273° West 317 365 9,400  Level Washington Center
06:02PM 36.7350 -76.8932 253° West  Level FlightAware Approximate
06:02PM 36.9814 -76.4292 250° West 317 365 11,300  Level Washington Center
06:03PM 36.6897 -77.0258 244° Southwest  Level FlightAware Approximate
06:03PM 36.9283 -76.5428 240° Southwest 341 392 12,800  Level Washington Center
06:04PM 36.8753 -76.6694 242° Southwest 382 440 15,000 2,400 Climbing Washington Center
06:05PM 36.8133 -76.7983 239° Southwest 421 484 17,600 2,040 Climbing Washington Center
06:06PM 36.7536 -76.9294 240° Southwest 436 502 19,100 1,680 Climbing Washington Center
06:07PM 36.6917 -77.0631 240° Southwest 442 509 21,000 1,740 Climbing Washington Center
06:08PM 36.6294 -77.1992 240° Southwest 447 514 22,700 1,680 Climbing Washington Center
06:09PM 36.5647 -77.3375 240° Southwest 457 526 24,400 1,680 Climbing Washington Center
06:10PM 36.5000 -77.4756 240° Southwest 457 526 26,100 1,680 Climbing Washington Center
06:11PM 36.4206 -77.6156 235° Southwest 457 526 27,900 960 Climbing Washington Center
06:12PM 36.3208 -77.7136 218° Southwest 457 526 28,000  Climbing Washington Center
06:13PM 36.2192 -77.8086 217° Southwest 452 520 28,000  Level Washington Center
06:14PM 36.1169 -77.9061 218° Southwest 464 534 28,000 960 Level Washington Center
06:15PM 36.0192 -78.0033 219° Southwest 464 534 30,000 960 Climbing Washington Center
06:16PM 35.9192 -78.0953 217° Southwest 459 528 30,000  Level Washington Center
06:17PM 35.8211 -78.1919 219° Southwest 459 528 30,000  Level Washington Center
06:18PM 35.7403 -78.2636 216° Southwest 459 528 30,000  Level Washington Center
06:19PM 35.6381 -78.3600 217° Southwest 448 516 30,000  Level Washington Center
06:20PM 35.5397 -78.4508 217° Southwest 451 519 30,000  Level Washington Center
06:21PM 35.4350 -78.5517 218° Southwest 451 519 30,000  Level Washington Center
06:22PM 35.3453 -78.6350 217° Southwest 446 513 30,000  Level Washington Center
06:23PM 35.2492 -78.7281 218° Southwest 452 520 30,000  Level Washington Center
06:24PM 35.1572 -78.8133 217° Southwest 447 514 30,000  Level Washington Center
06:26PM 34.9589 -78.9944 217° Southwest 430 495 30,000  Level Jacksonville Center
06:27PM 34.8636 -79.0825 217° Southwest 430 495 30,000  Level Jacksonville Center
06:28PM 34.7703 -79.1672 217° Southwest 430 495 30,000  Level Jacksonville Center
06:29PM 34.6811 -79.2597 220° Southwest 430 495 30,000  Level Jacksonville Center
06:30PM 34.6264 -79.3906 243° Southwest 424 488 30,000  Level Jacksonville Center
06:31PM 34.5736 -79.5189 243° Southwest 424 488 30,000  Level Jacksonville Center
06:32PM 34.5228 -79.6492 245° Southwest 430 495 30,000  Level Jacksonville Center
06:33PM 34.4758 -79.7744 246° West 430 495 30,000  Level Jacksonville Center
06:34PM 34.4228 -79.9047 244° Southwest 425 489 30,000  Level Jacksonville Center
06:35PM 34.3694 -80.0347 244° Southwest 425 489 30,000  Level Jacksonville Center
06:36PM 34.3161 -80.1672 244° Southwest 433 498 30,000  Level Jacksonville Center
06:37PM 34.2625 -80.2972 244° Southwest 433 498 30,000  Level Jacksonville Center
06:38PM 34.2089 -80.4269 243° Southwest 433 498 30,000  Level Jacksonville Center
06:39PM 34.1589 -80.5536 245° Southwest 428 493 30,000  Level Jacksonville Center
06:40PM 34.1050 -80.6831 243° Southwest 428 493 30,000  Level Jacksonville Center
06:41PM 34.0508 -80.8072 242° Southwest 428 493 30,000  Level Jacksonville Center
06:42PM 33.9967 -80.9389 244° Southwest 428 493 30,000  Level Jacksonville Center
06:44PM 33.8886 -81.1886 243° Southwest 447 514 30,000  Level Atlanta Center
06:45PM 33.8331 -81.3206 243° Southwest 447 514 30,000  Level Atlanta Center
06:46PM 33.7775 -81.4522 243° Southwest 447 514 30,000  Level Atlanta Center
06:47PM 33.7217 -81.5811 243° Southwest 441 507 30,000  Level Atlanta Center
06:48PM 33.6636 -81.7150 243° Southwest 441 507 30,000  Level Atlanta Center
06:49PM 33.6225 -81.8558 251° West 441 507 30,000  Level Atlanta Center
06:50PM 33.5958 -82.0014 258° West 448 516 30,000 -600 Level Atlanta Center
06:51PM 33.5647 -82.1467 256° West 448 516 28,900 -1,740 Descending Atlanta Center
06:52PM 33.5336 -82.3092 257° West 457 526 26,600 -2,400 Descending Atlanta Center
06:53PM 33.5125 -82.4367 259° West 457 526 24,200 -1,320 Descending Atlanta Center
06:54PM 33.4808 -82.5844 256° West 452 520 24,000 -120 Descending Atlanta Center
06:55PM 33.4511 -82.7267 256° West 445 512 24,000  Level Atlanta Center
06:56PM 33.4214 -82.8739 256° West 458 527 24,000  Level Atlanta Center
06:57PM 33.3892 -83.0236 256° West 452 520 24,000 -240 Level Atlanta Center
06:58PM 33.3592 -83.1683 256° West 452 520 23,600 -1,560 Descending Atlanta Center
06:59PM 33.3267 -83.3203 256° West 447 514 20,900 -3,300 Descending Atlanta Center
07:00PM 33.2961 -83.4522 255° West 428 493 17,000 -3,420 Descending Atlanta Center
07:01PM 33.2675 -83.5792 255° West 405 466 14,100 -1,560 Descending Atlanta Center
07:02PM 33.2428 -83.7011 256° West 393 452 13,900 -180 Descending Atlanta Center
07:03PM 33.2333 -83.7667 260° West 351 404 13,900 -540 Level Atlanta TRACON
07:04PM 33.2703 -83.8872 290° West 276 318 12,900 -840 Descending Atlanta Center
07:05PM 33.3225 -83.9642 309° West 287 330 12,000 -480 Descending Atlanta Center
07:06PM 33.3706 -84.0439 306° West 299 344 12,000  Level Atlanta Center
07:07PM 33.4164 -84.1158 307° West 304 350 12,000  Level Atlanta Center
07:08PM 33.4500 -84.1667 308° West 300 345 12,000  Level Atlanta TRACON
07:09PM 33.5000 -84.2500 306° West 289 333 12,000 -360 Level Atlanta TRACON
07:10PM 33.5500 -84.3167 312° West 276 318 11,300 -1,740 Descending Atlanta TRACON
07:11PM 33.5500 -84.4167 270° West 299 344 8,600 -2,400 Descending Atlanta TRACON
07:12PM 33.5500 -84.5167 270° West 286 329 6,500 -2,100 Descending Atlanta TRACON
07:13PM 33.5500 -84.6000 270° West 285 328 4,400 -1,260 Descending Atlanta TRACON
07:14PM 33.5500 -84.7000 270° West 260 299 4,000 -240 Descending Atlanta TRACON
07:15PM 33.5500 -84.7833 270° West 257 296 4,000  Level Atlanta TRACON
07:16PM 33.5833 -84.8333 309° West 228 262 4,000 -540 Level Atlanta TRACON
07:17PM 33.6167 -84.8167 23° Northeast 178 205 3,000 -540 Descending Atlanta TRACON
07:18PM 33.6167 -84.7667 90° East 152 175 3,000  Level Atlanta TRACON
07:19PM 33.6167 -84.7167 90° East 152 175 3,000  Level Atlanta TRACON
07:21PM 33.6167 -84.6167 90° East 154 177 3,000  Level Atlanta TRACON